»·PEaware :: N9915H KSNA-KLAS

N9915H :: KSNA-KLAS

FLIGHT INFORMATION

Flight Status: Arrived
Operator: Privately registered:
United States
More flights under this callsign
Pilot: Charlton B. (28558)
Aircraft: ECLIPSE 500
(EA50)
More flights by this aircraft type
Origin: KSNA John Wayne-Orange Co
United States
Destination: KLAS McCarran Intl
United States
More flights between these airports :: More routes between these airports
Route: +MUSEL8 DAG MISEN KEPEC6
File this flight plan on PilotEdge
Remarks:
Altitude:
(Current/Filed)
21,000ft
Speed:
(Current/Filed)
200kts
Departed: 10-Sep-20 11:18 AM
Arrived: 10-Sep-20 12:19 PM
Distance/Time
Traveled:
196nm/1:00
Distance/Time
To Go:
Arrived

Flight Plot

Page will automatically refresh every two minutes.

Flight plan parsing failed; only flown route is shown


Map Options




Map Legend


Flown Route
Filed Route
Departure Airport
Arrival Airport
Navaid (VOR, NDB)
Fix

Horizontal Profiles

Position Reports

Time Latitude Longitude Heading Altitude Ground
Speed
10-Sep-20 10:59 33.672462 -117.867182 208 59ft 0kts
10-Sep-20 11:00 33.672462 -117.867182 208 59ft 0kts
10-Sep-20 11:01 33.672462 -117.867182 208 59ft 0kts
10-Sep-20 11:02 33.672462 -117.867182 208 59ft 0kts
10-Sep-20 11:03 33.672462 -117.867182 208 59ft 0kts
10-Sep-20 11:04 33.672462 -117.867182 208 59ft 0kts
10-Sep-20 11:05 33.672462 -117.867182 208 59ft 0kts
10-Sep-20 11:06 33.672462 -117.867182 208 59ft 0kts
10-Sep-20 11:07 33.672462 -117.867182 208 59ft 0kts
10-Sep-20 11:08 33.672462 -117.867182 208 59ft 0kts
10-Sep-20 11:09 33.672462 -117.867182 208 59ft 0kts
10-Sep-20 11:10 33.672462 -117.867182 208 59ft 0kts
10-Sep-20 11:11 33.672493 -117.867474 341 59ft 6kts
10-Sep-20 11:12 33.674242 -117.866412 30 59ft 9kts
10-Sep-20 11:13 33.678387 -117.863827 28 59ft 14kts
10-Sep-20 11:14 33.680597 -117.862957 307 59ft 4kts
10-Sep-20 11:15 33.680630 -117.863027 298 59ft 0kts
10-Sep-20 11:16 33.680990 -117.863829 297 59ft 12kts
10-Sep-20 11:17 33.680151 -117.866029 209 59ft 46kts
10-Sep-20 11:18 33.642257 -117.884765 188 1713ft 197kts
10-Sep-20 11:19 33.585652 -117.895202 188 4718ft 204kts
10-Sep-20 11:20 33.531965 -117.906194 207 6691ft 201kts
10-Sep-20 11:21 33.515964 -117.969891 261 8459ft 217kts
10-Sep-20 11:22 33.536222 -118.021049 10 11335ft 209kts
10-Sep-20 11:23 33.594750 -118.028333 353 12756ft 216kts
10-Sep-20 11:24 33.654523 -118.037241 354 14109ft 218kts
10-Sep-20 11:25 33.713789 -118.045372 354 15327ft 218kts
10-Sep-20 11:26 33.775023 -118.053512 356 16640ft 223kts
10-Sep-20 11:27 33.827076 -118.015244 36 17968ft 226kts
10-Sep-20 11:28 33.877520 -117.969470 35 19347ft 230kts
10-Sep-20 11:29 33.929180 -117.922607 35 20768ft 234kts
10-Sep-20 11:30 33.981791 -117.874861 34 21085ft 240kts
10-Sep-20 11:31 34.041753 -117.820365 35 21104ft 288kts
10-Sep-20 11:32 34.101925 -117.755235 45 21115ft 293kts
10-Sep-20 11:33 34.156191 -117.682220 45 21119ft 293kts
10-Sep-20 11:34 34.210722 -117.608649 45 21124ft 293kts
10-Sep-20 11:35 34.265051 -117.535181 45 21131ft 292kts
10-Sep-20 11:36 34.319030 -117.462029 45 21158ft 291kts
10-Sep-20 11:37 34.372585 -117.389298 45 21193ft 289kts
10-Sep-20 11:38 34.426130 -117.316438 46 21204ft 290kts
10-Sep-20 11:39 34.479579 -117.243552 46 21188ft 290kts
10-Sep-20 11:40 34.533165 -117.170331 46 21199ft 289kts
10-Sep-20 11:41 34.586430 -117.097371 46 21217ft 289kts
10-Sep-20 11:42 34.639877 -117.023991 45 21209ft 291kts
10-Sep-20 11:43 34.693572 -116.950146 45 21200ft 293kts
10-Sep-20 11:44 34.747624 -116.875654 44 21191ft 295kts
10-Sep-20 11:45 34.801851 -116.800810 44 21190ft 295kts
10-Sep-20 11:46 34.855994 -116.725886 44 21190ft 295kts
10-Sep-20 11:47 34.944154 -116.603577 44 21190ft 294kts
10-Sep-20 11:48 34.999671 -116.531766 41 21194ft 291kts
10-Sep-20 11:49 35.056239 -116.461303 41 21202ft 290kts
10-Sep-20 11:50 35.112746 -116.390765 41 21152ft 292kts
10-Sep-20 11:51 35.168746 -116.320714 41 20263ft 286kts
10-Sep-20 11:52 35.223944 -116.251524 41 19371ft 282kts
10-Sep-20 11:53 35.278196 -116.183372 41 18479ft 277kts
10-Sep-20 11:54 35.331418 -116.116373 41 17588ft 273kts
10-Sep-20 11:55 35.384054 -116.049979 42 16691ft 270kts
10-Sep-20 11:56 35.435876 -115.984480 42 15793ft 266kts
10-Sep-20 11:57 35.486863 -115.919914 42 14893ft 262kts
10-Sep-20 11:58 35.537032 -115.856262 42 13993ft 258kts
10-Sep-20 11:59 35.586583 -115.793266 42 13091ft 254kts
10-Sep-20 12:00 35.629734 -115.738205 41 13021ft 198kts
10-Sep-20 12:01 35.669342 -115.687765 41 13032ft 205kts
10-Sep-20 12:02 35.708977 -115.637151 41 13035ft 205kts
10-Sep-20 12:03 35.748597 -115.586469 41 13035ft 205kts
10-Sep-20 12:04 35.800999 -115.573084 2 13034ft 199kts
10-Sep-20 12:05 35.856224 -115.569973 2 13032ft 199kts
10-Sep-20 12:06 35.911547 -115.566859 2 13038ft 199kts
10-Sep-20 12:07 35.966535 -115.562118 22 13027ft 200kts
10-Sep-20 12:08 35.992285 -115.497673 63 12393ft 216kts
10-Sep-20 12:09 36.013221 -115.431636 63 11097ft 202kts
10-Sep-20 12:11 36.030541 -115.365645 89 11032ft 214kts
10-Sep-20 12:12 36.025071 -115.291748 90 9919ft 207kts
10-Sep-20 12:13 36.019941 -115.221687 90 9048ft 201kts
10-Sep-20 12:14 36.015051 -115.150932 90 9044ft 205kts
10-Sep-20 12:15 36.010284 -115.080868 90 9038ft 204kts
10-Sep-20 12:16 36.042044 -115.051893 317 8229ft 227kts
10-Sep-20 12:17 36.090735 -115.087416 338 5580ft 221kts
10-Sep-20 12:18 36.106311 -115.148853 242 2551ft 158kts
10-Sep-20 12:19 36.084343 -115.165633 240 2146ft 8kts
10-Sep-20 12:20 36.083216 -115.167309 225 2155ft 0kts
10-Sep-20 12:21 36.080582 -115.169874 250 2167ft 5kts
10-Sep-20 12:22 36.080383 -115.170649 206 2169ft 0kts
10-Sep-20 12:23 36.080383 -115.170649 206 2169ft 0kts
10-Sep-20 12:24 36.080383 -115.170649 206 2169ft 0kts

Navigation Log

Ident Type
Flight plan parsing failed, navigation log unavailable